Time;durP1;ratioP1;P1;durP2;ratioP2;P2;SDS_P1;SDS_P2;PMS_P1;PMS_P2;Temp;Humidity;BMP_temperature;BMP_pressure;BME280_temperature;BME280_humidity;BME280_pressure;Samples;Min_cycle;Max_cycle;Signal;HPM_P1;HPM_P2
2021/10/30 00:01:56;;;;;;;30.10;19.73;;;333.00;1561.60;;;;;;5078532;28;20050;-63
2021/10/30 00:04:22;;;;;;;28.02;19.02;;;333.00;1561.60;;;;;;5097170;28;20016;-62
2021/10/30 00:06:48;;;;;;;27.38;19.15;;;333.00;1561.60;;;;;;5097231;28;20043;-62
2021/10/30 00:09:14;;;;;;;27.75;19.75;;;333.00;1561.60;;;;;;5078990;28;20110;-62
2021/10/30 00:11:39;;;;;;;30.73;20.35;;;333.00;1561.60;;;;;;5097499;28;20039;-62
2021/10/30 00:14:05;;;;;;;29.95;21.00;;;333.00;1561.60;;;;;;5097345;28;20032;-62
2021/10/30 00:16:31;;;;;;;32.25;20.95;;;333.00;1561.60;;;;;;5078519;28;20065;-62
2021/10/30 00:18:57;;;;;;;30.70;19.85;;;333.00;1561.60;;;;;;5097398;28;20028;-62
2021/10/30 00:21:22;;;;;;;28.15;18.40;;;333.00;1561.60;;;;;;5096913;28;20093;-62
2021/10/30 00:23:48;;;;;;;28.75;19.60;;;333.00;1561.60;;;;;;5096561;28;20028;-62
2021/10/30 00:26:14;;;;;;;29.45;18.02;;;333.00;1561.60;;;;;;5097040;28;20024;-62
2021/10/30 00:28:40;;;;;;;32.13;20.58;;;333.00;1561.60;;;;;;5078546;28;20036;-63
2021/10/30 00:31:05;;;;;;;28.73;18.27;;;333.00;1561.60;;;;;;5078463;28;20032;-62
2021/10/30 00:33:32;;;;;;;26.65;18.80;;;333.00;1561.60;;;;;;5096616;28;20028;-62
2021/10/30 00:35:57;;;;;;;32.05;18.10;;;333.00;1561.60;;;;;;5096822;28;20103;-62
2021/10/30 00:38:23;;;;;;;34.50;18.83;;;333.10;1561.60;;;;;;5078067;28;20123;-62
2021/10/30 00:40:49;;;;;;;30.15;17.23;;;333.00;1587.20;;;;;;5096686;28;20016;-62
2021/10/30 00:43:15;;;;;;;28.48;18.65;;;333.00;1587.20;;;;;;5096343;28;20024;-62
2021/10/30 00:45:45;;;;;;;25.58;17.58;;;333.00;1587.20;;;;;;5096384;28;20032;-62
2021/10/30 00:48:11;;;;;;;24.35;17.15;;;333.00;1587.20;;;;;;5078298;28;20032;-62
2021/10/30 00:50:37;;;;;;;31.45;17.88;;;333.00;1587.20;;;;;;5078156;28;20051;-62
2021/10/30 00:53:03;;;;;;;25.90;17.25;;;333.00;1587.20;;;;;;5096589;28;20378;-62
2021/10/30 00:55:30;;;;;;;35.55;18.23;;;333.00;1587.20;;;;;;5096033;28;20017;-62
2021/10/30 00:57:59;;;;;;;26.52;17.27;;;333.00;1587.20;;;;;;5096513;28;20024;-62
2021/10/30 01:00:25;;;;;;;31.85;18.25;;;333.00;1587.20;;;;;;5096290;28;20437;-61
2021/10/30 01:02:52;;;;;;;29.23;17.13;;;333.00;1587.20;;;;;;5096356;28;20027;-62
2021/10/30 01:05:18;;;;;;;24.17;17.38;;;333.10;1587.20;;;;;;5095629;28;20024;-62
2021/10/30 01:07:44;;;;;;;31.05;17.67;;;333.10;1587.20;;;;;;5096007;28;20032;-61
2021/10/30 01:10:10;;;;;;;34.33;18.45;;;333.10;1612.80;;;;;;5096122;28;20021;-61
2021/10/30 01:12:36;;;;;;;30.95;16.92;;;333.10;1612.80;;;;;;5096072;28;20054;-62
2021/10/30 01:15:05;;;;;;;26.73;17.08;;;333.10;1612.80;;;;;;5096175;28;20031;-62
2021/10/30 01:17:31;;;;;;;32.70;18.35;;;333.10;1612.80;;;;;;5095977;28;20028;-62
2021/10/30 01:19:57;;;;;;;27.98;17.85;;;333.10;1612.80;;;;;;5095799;28;20020;-62
2021/10/30 01:22:23;;;;;;;25.30;17.38;;;333.10;1612.80;;;;;;5076996;28;20072;-62
2021/10/30 01:24:50;;;;;;;28.33;17.60;;;333.20;1612.80;;;;;;5095540;28;20051;-62
2021/10/30 01:27:18;;;;;;;28.75;17.00;;;333.20;1612.80;;;;;;5095648;28;20486;-62
2021/10/30 01:29:47;;;;;;;36.00;17.98;;;333.20;1612.80;;;;;;5095706;28;20025;-61
2021/10/30 01:32:16;;;;;;;29.38;16.98;;;333.20;1612.80;;;;;;5095697;28;20028;-62
2021/10/30 01:34:42;;;;;;;28.45;18.27;;;333.20;1612.80;;;;;;5095391;28;20024;-62
2021/10/30 01:37:07;;;;;;;28.63;18.15;;;333.20;1612.80;;;;;;5095068;28;20028;-62
2021/10/30 01:39:34;;;;;;;28.55;17.63;;;333.20;1612.80;;;;;;5095607;28;20031;-61
2021/10/30 01:42:00;;;;;;;26.90;17.33;;;333.20;1612.80;;;;;;5095551;28;20430;-62
2021/10/30 01:44:27;;;;;;;28.42;16.35;;;333.30;1612.80;;;;;;5095529;28;20073;-62
2021/10/30 01:46:58;;;;;;;31.20;19.20;;;333.30;1612.80;;;;;;5095244;28;20040;-62
2021/10/30 01:49:25;;;;;;;25.15;16.90;;;333.30;1638.40;;;;;;5094918;28;20028;-62
2021/10/30 01:51:51;;;;;;;26.65;16.02;;;333.30;1612.80;;;;;;5095483;28;20035;-62
2021/10/30 01:54:16;;;;;;;26.83;16.63;;;333.30;1612.80;;;;;;5094785;28;20028;-62
2021/10/30 01:56:42;;;;;;;29.50;16.70;;;333.30;1638.40;;;;;;5095398;28;20081;-61
2021/10/30 01:59:08;;;;;;;24.30;16.25;;;333.30;1612.80;;;;;;5076773;28;20516;-62
2021/10/30 02:01:34;;;;;;;30.27;17.27;;;333.30;1638.40;;;;;;5095170;28;20047;-62
2021/10/30 02:03:59;;;;;;;24.55;16.45;;;333.40;1612.80;;;;;;5094907;28;20024;-62
2021/10/30 02:06:25;;;;;;;25.10;16.58;;;333.40;1612.80;;;;;;5095005;28;20040;-61
2021/10/30 02:08:51;;;;;;;28.95;16.60;;;333.40;1612.80;;;;;;5076433;28;20119;-61
2021/10/30 02:11:17;;;;;;;26.55;16.85;;;333.50;1612.80;;;;;;5094342;28;20024;-62
2021/10/30 02:13:43;;;;;;;27.23;16.13;;;333.50;1612.80;;;;;;5095331;28;20024;-62
2021/10/30 02:16:10;;;;;;;25.52;16.02;;;333.50;1612.80;;;;;;5094934;28;20496;-62
2021/10/30 02:18:36;;;;;;;28.35;16.58;;;333.50;1612.80;;;;;;5094861;28;20020;-62
2021/10/30 02:21:02;;;;;;;29.23;17.10;;;333.50;1612.80;;;;;;5075870;28;20029;-61
2021/10/30 02:23:27;;;;;;;26.00;17.17;;;333.50;1612.80;;;;;;5094730;28;20035;-62
2021/10/30 02:25:53;;;;;;;25.92;17.40;;;333.50;1612.80;;;;;;5094899;28;20035;-61
2021/10/30 02:28:19;;;;;;;24.85;17.00;;;333.50;1612.80;;;;;;5076272;28;20115;-62
2021/10/30 02:30:45;;;;;;;32.63;17.40;;;333.50;1612.80;;;;;;5094614;28;20024;-62
2021/10/30 02:33:11;;;;;;;27.45;17.95;;;333.50;1612.80;;;;;;5094364;28;20032;-62
2021/10/30 02:35:36;;;;;;;25.42;17.27;;;333.60;1612.80;;;;;;5094642;28;20149;-62
2021/10/30 02:38:03;;;;;;;26.90;17.75;;;333.60;1612.80;;;;;;5094342;28;20385;-62
2021/10/30 02:40:28;;;;;;;28.42;17.55;;;333.60;1612.80;;;;;;5094034;28;20024;-62
2021/10/30 02:42:54;;;;;;;32.22;17.40;;;333.60;1612.80;;;;;;5094675;28;20111;-62
2021/10/30 02:45:20;;;;;;;31.48;17.00;;;333.60;1612.80;;;;;;5094511;28;20145;-62
2021/10/30 02:47:46;;;;;;;28.00;17.80;;;333.60;1612.80;;;;;;5094340;28;20040;-62
2021/10/30 02:50:12;;;;;;;31.58;18.13;;;333.60;1612.80;;;;;;5093889;28;20554;-61
2021/10/30 02:52:38;;;;;;;27.02;18.00;;;333.60;1612.80;;;;;;5094006;28;20119;-61
2021/10/30 02:55:04;;;;;;;29.73;18.33;;;333.60;1612.80;;;;;;5094178;28;20031;-62
2021/10/30 02:57:30;;;;;;;28.58;18.65;;;333.60;1612.80;;;;;;5094759;28;20024;-62
2021/10/30 02:59:56;;;;;;;26.02;17.88;;;333.60;1612.80;;;;;;5094146;28;20484;-62
2021/10/30 03:02:22;;;;;;;28.52;17.42;;;333.60;1612.80;;;;;;5094175;28;20043;-61
2021/10/30 03:04:47;;;;;;;27.50;17.73;;;333.60;1612.80;;;;;;5094016;28;20497;-62
2021/10/30 03:07:14;;;;;;;28.98;17.85;;;333.60;1612.80;;;;;;5094046;28;20367;-62
2021/10/30 03:09:40;;;;;;;27.15;18.00;;;333.60;1612.80;;;;;;5093875;28;20069;-62
2021/10/30 03:12:06;;;;;;;30.00;18.85;;;333.60;1612.80;;;;;;5093982;28;20031;-62
2021/10/30 03:14:31;;;;;;;26.77;18.13;;;333.60;1638.40;;;;;;5093678;28;20462;-62
2021/10/30 03:16:57;;;;;;;23.58;17.08;;;333.60;1612.80;;;;;;5093619;28;20028;-61
2021/10/30 03:19:23;;;;;;;31.08;18.33;;;333.60;1612.80;;;;;;5093676;28;20020;-62
2021/10/30 03:21:48;;;;;;;28.48;17.85;;;333.60;1612.80;;;;;;5093739;28;20032;-61
2021/10/30 03:24:16;;;;;;;33.03;18.50;;;333.60;1612.80;;;;;;5093058;28;20020;-62
2021/10/30 03:26:42;;;;;;;25.80;18.10;;;333.60;1612.80;;;;;;5093754;28;20032;-61
2021/10/30 03:29:08;;;;;;;29.05;18.25;;;333.60;1612.80;;;;;;5093898;28;20539;-62
2021/10/30 03:31:34;;;;;;;26.00;17.65;;;333.50;1638.40;;;;;;5093596;28;20020;-61
2021/10/30 03:33:59;;;;;;;27.25;17.73;;;333.60;1612.80;;;;;;5093622;28;20492;-62
2021/10/30 03:36:25;;;;;;;30.60;17.33;;;333.50;1612.80;;;;;;5093501;28;20031;-62
2021/10/30 03:38:51;;;;;;;26.02;18.55;;;333.60;1612.80;;;;;;5093236;28;20032;-62
2021/10/30 03:41:17;;;;;;;27.73;18.58;;;333.60;1612.80;;;;;;5093590;28;20024;-61
2021/10/30 03:43:42;;;;;;;24.65;17.23;;;333.50;1612.80;;;;;;5093854;28;20020;-61
2021/10/30 03:46:08;;;;;;;24.90;17.58;;;333.50;1638.40;;;;;;5093806;28;20020;-61
2021/10/30 03:48:34;;;;;;;29.27;17.63;;;333.50;1612.80;;;;;;5093364;28;20484;-62
2021/10/30 03:50:59;;;;;;;33.45;17.92;;;333.50;1612.80;;;;;;5071287;28;20041;-61
2021/10/30 03:53:28;;;;;;;27.23;16.85;;;333.50;1612.80;;;;;;5073533;28;20064;-62
2021/10/30 03:55:53;;;;;;;26.45;17.85;;;333.50;1638.40;;;;;;5073180;28;20113;-61
2021/10/30 03:58:19;;;;;;;28.95;18.20;;;333.50;1638.40;;;;;;5073197;28;20063;-61
2021/10/30 04:00:45;;;;;;;34.35;18.48;;;333.50;1638.40;;;;;;5073226;28;20198;-61
2021/10/30 04:03:11;;;;;;;30.15;18.10;;;333.50;1638.40;;;;;;5073438;28;20035;-62
2021/10/30 04:05:38;;;;;;;30.83;18.33;;;333.50;1638.40;;;;;;5073224;28;20154;-62
2021/10/30 04:08:05;;;;;;;24.55;17.52;;;333.50;1638.40;;;;;;5073347;28;20465;-62
2021/10/30 04:10:31;;;;;;;28.38;19.27;;;333.50;1638.40;;;;;;5073273;28;20091;-62
2021/10/30 04:12:56;;;;;;;26.52;16.67;;;333.50;1638.40;;;;;;5073174;28;20154;-62
2021/10/30 04:15:22;;;;;;;24.13;17.10;;;333.50;1638.40;;;;;;5073264;28;20109;-61
2021/10/30 04:17:48;;;;;;;29.48;17.35;;;333.50;1638.40;;;;;;5073483;28;20034;-61
2021/10/30 04:20:14;;;;;;;26.13;16.67;;;333.50;1638.40;;;;;;5073087;28;20029;-61
2021/10/30 04:22:39;;;;;;;26.95;17.25;;;333.50;1638.40;;;;;;5072917;28;20111;-61
2021/10/30 04:25:05;;;;;;;32.65;18.23;;;333.50;1638.40;;;;;;5073208;28;20024;-61
2021/10/30 04:27:31;;;;;;;26.50;17.73;;;333.50;1638.40;;;;;;5073112;28;20040;-62
2021/10/30 04:29:57;;;;;;;40.08;19.33;;;333.50;1638.40;;;;;;5073057;28;20103;-62
2021/10/30 04:32:23;;;;;;;41.13;19.05;;;333.50;1638.40;;;;;;5073098;28;20074;-62
2021/10/30 04:34:52;;;;;;;32.90;17.85;;;333.50;1638.40;;;;;;5073403;28;20386;-61
2021/10/30 04:37:18;;;;;;;26.10;17.15;;;333.60;1664.00;;;;;;5074698;28;20115;-62
2021/10/30 04:39:49;;;;;;;29.70;17.98;;;333.50;1638.40;;;;;;5076591;28;20021;-62
2021/10/30 04:42:16;;;;;;;30.95;17.55;;;333.50;1638.40;;;;;;5076573;28;20025;-62
2021/10/30 04:44:42;;;;;;;24.88;18.20;;;333.50;1638.40;;;;;;5075253;28;20039;-62
2021/10/30 04:47:12;;;;;;;25.88;18.33;;;333.60;1638.40;;;;;;5076404;28;20041;-61
2021/10/30 04:49:39;;;;;;;25.17;17.10;;;333.50;1638.40;;;;;;5080224;28;20043;-61
2021/10/30 04:52:08;;;;;;;26.48;16.73;;;333.50;1638.40;;;;;;5096518;28;20053;-61
2021/10/30 04:54:34;;;;;;;25.90;17.63;;;333.50;1638.40;;;;;;5096643;28;20111;-61
2021/10/30 04:57:00;;;;;;;26.17;17.40;;;333.50;1638.40;;;;;;5096372;28;20028;-62
2021/10/30 04:59:26;;;;;;;32.00;17.63;;;333.50;1638.40;;;;;;5096472;28;20101;-61
2021/10/30 05:01:52;;;;;;;32.67;17.98;;;333.50;1638.40;;;;;;5096058;28;20027;-61
2021/10/30 05:04:17;;;;;;;30.23;17.52;;;333.60;1638.40;;;;;;5077315;28;20497;-62
2021/10/30 05:06:43;;;;;;;26.63;17.33;;;333.50;1638.40;;;;;;5095917;28;20036;-61
2021/10/30 05:09:09;;;;;;;28.90;17.85;;;333.50;1638.40;;;;;;5096101;28;20504;-61
2021/10/30 05:11:35;;;;;;;25.88;16.75;;;333.50;1638.40;;;;;;5095987;28;20103;-62
2021/10/30 05:14:02;;;;;;;31.70;18.70;;;333.50;1638.40;;;;;;5096285;28;20028;-61
2021/10/30 05:16:27;;;;;;;40.60;20.88;;;333.50;1638.40;;;;;;5096279;28;20115;-62
2021/10/30 05:18:53;;;;;;;37.13;20.00;;;333.50;1638.40;;;;;;5095863;28;20439;-61
2021/10/30 05:21:19;;;;;;;27.50;18.15;;;333.50;1638.40;;;;;;5096073;28;20042;-61
2021/10/30 05:23:45;;;;;;;25.65;17.65;;;333.50;1638.40;;;;;;5095995;28;20024;-62
2021/10/30 05:26:11;;;;;;;30.48;17.90;;;333.50;1638.40;;;;;;5095696;28;20408;-61
2021/10/30 05:28:37;;;;;;;24.92;17.25;;;333.50;1664.00;;;;;;5095823;28;20029;-62
2021/10/30 05:31:03;;;;;;;24.60;17.30;;;333.50;1664.00;;;;;;5095977;28;20045;-61
2021/10/30 05:33:29;;;;;;;26.90;17.10;;;333.40;1664.00;;;;;;5095479;28;20020;-62
2021/10/30 05:35:55;;;;;;;33.15;17.02;;;333.40;1664.00;;;;;;5095562;28;20577;-61
2021/10/30 05:38:21;;;;;;;25.77;16.90;;;333.40;1664.00;;;;;;5095858;28;20063;-62
2021/10/30 05:40:48;;;;;;;29.45;16.70;;;333.40;1664.00;;;;;;5095528;28;20047;-61
2021/10/30 05:43:14;;;;;;;25.90;16.95;;;333.40;1664.00;;;;;;5095412;28;20027;-61
2021/10/30 05:45:42;;;;;;;25.45;16.65;;;333.40;1664.00;;;;;;5095064;28;20020;-61
2021/10/30 05:48:08;;;;;;;23.77;17.23;;;333.30;1664.00;;;;;;5094660;28;20055;-61
2021/10/30 05:50:35;;;;;;;44.33;28.05;;;333.40;1664.00;;;;;;5095067;28;20067;-61
2021/10/30 05:53:01;;;;;;;35.90;21.10;;;333.40;1664.00;;;;;;5095078;28;20016;-61
2021/10/30 05:55:27;;;;;;;35.67;22.67;;;333.40;1664.00;;;;;;5095385;28;20357;-61
2021/10/30 05:57:53;;;;;;;29.00;18.25;;;333.40;1664.00;;;;;;5094744;28;20020;-61
2021/10/30 06:00:19;;;;;;;26.95;18.30;;;333.40;1664.00;;;;;;5094588;28;20019;-61
2021/10/30 06:02:45;;;;;;;26.45;16.90;;;333.40;1689.60;;;;;;5094560;28;20073;-61
2021/10/30 06:05:11;;;;;;;30.13;20.15;;;333.40;1664.00;;;;;;5094243;28;20497;-61
2021/10/30 06:07:38;;;;;;;44.75;31.38;;;333.40;1664.00;;;;;;5094703;28;20044;-61
2021/10/30 06:10:08;;;;;;;46.33;34.05;;;333.40;1664.00;;;;;;5094889;28;20025;-61
2021/10/30 06:12:38;;;;;;;42.67;32.65;;;333.40;1664.00;;;;;;5094924;28;20034;-63
2021/10/30 06:15:05;;;;;;;45.42;31.95;;;333.40;1664.00;;;;;;5094999;28;20111;-64
2021/10/30 06:17:31;;;;;;;30.95;21.08;;;333.50;1664.00;;;;;;5094379;28;20036;-64
2021/10/30 06:19:57;;;;;;;34.28;17.23;;;333.50;1664.00;;;;;;5096535;28;20024;-65
2021/10/30 06:22:23;;;;;;;28.20;14.93;;;333.50;1664.00;;;;;;5097461;28;20012;-64
2021/10/30 06:24:48;;;;;;;24.10;15.50;;;333.50;1664.00;;;;;;5094111;28;20414;-64
2021/10/30 06:27:14;;;;;;;28.85;15.45;;;333.50;1664.00;;;;;;5094118;28;20032;-64
2021/10/30 06:29:40;;;;;;;23.00;15.68;;;333.50;1664.00;;;;;;5094147;28;20093;-64
2021/10/30 06:32:06;;;;;;;23.40;16.52;;;333.60;1638.40;;;;;;5094105;28;20034;-64
2021/10/30 06:34:32;;;;;;;27.08;17.42;;;333.60;1638.40;;;;;;5093801;28;20497;-64
2021/10/30 06:36:58;;;;;;;25.95;16.35;;;333.60;1638.40;;;;;;5093654;28;20481;-64
2021/10/30 06:39:24;;;;;;;28.08;19.40;;;333.60;1638.40;;;;;;5094326;28;20103;-64
2021/10/30 06:41:50;;;;;;;33.17;21.20;;;333.70;1638.40;;;;;;5094664;28;20108;-64
2021/10/30 06:44:16;;;;;;;27.80;18.98;;;333.70;1638.40;;;;;;5094373;28;20028;-62
2021/10/30 06:46:42;;;;;;;35.30;19.95;;;333.70;1638.40;;;;;;5076239;28;20028;-64
2021/10/30 06:49:11;;;;;;;31.15;18.63;;;333.70;1638.40;;;;;;5094216;28;20492;-65
2021/10/30 06:51:39;;;;;;;26.23;16.50;;;358.40;1638.40;;;;;;5094185;28;20040;-65
2021/10/30 06:54:05;;;;;;;20.40;12.00;;;358.40;1638.40;;;;;;5075961;28;20024;-65
2021/10/30 06:56:36;;;;;;;23.80;11.13;;;358.40;1638.40;;;;;;5094339;28;20374;-64
2021/10/30 06:59:03;;;;;;;16.50;10.13;;;358.50;1612.80;;;;;;5094307;28;20381;-65
2021/10/30 07:01:29;;;;;;;23.75;10.68;;;358.50;1612.80;;;;;;5094183;28;20042;-65
2021/10/30 07:03:54;;;;;;;19.77;10.23;;;358.50;1612.80;;;;;;5094192;28;20466;-65
2021/10/30 07:06:20;;;;;;;14.30;8.75;;;358.50;1612.80;;;;;;5093466;28;20031;-65
2021/10/30 07:08:46;;;;;;;21.58;10.43;;;358.60;1612.80;;;;;;5094367;28;20474;-63
2021/10/30 07:11:11;;;;;;;29.08;11.70;;;358.60;1612.80;;;;;;5093608;28;20111;-64
2021/10/30 07:13:37;;;;;;;21.25;11.15;;;358.60;1612.80;;;;;;5075124;28;20055;-64
2021/10/30 07:16:03;;;;;;;21.42;11.32;;;358.70;1587.20;;;;;;5093960;28;20027;-63
2021/10/30 07:18:29;;;;;;;28.77;12.25;;;358.80;1587.20;;;;;;5094030;28;20024;-64
2021/10/30 07:20:55;;;;;;;22.70;10.98;;;358.80;1587.20;;;;;;5093911;28;20016;-65
2021/10/30 07:23:20;;;;;;;20.40;9.20;;;358.90;1587.20;;;;;;5094282;28;20099;-63
2021/10/30 07:25:46;;;;;;;26.27;9.52;;;358.90;1587.20;;;;;;5093711;28;20052;-64
2021/10/30 07:28:12;;;;;;;13.75;8.95;;;359.00;1561.60;;;;;;5093766;28;20032;-64
2021/10/30 07:30:38;;;;;;;16.75;8.82;;;359.00;1561.60;;;;;;5093721;28;20030;-64
2021/10/30 07:33:03;;;;;;;18.58;8.55;;;359.10;1561.60;;;;;;5093856;28;20430;-64
2021/10/30 07:35:29;;;;;;;28.27;9.07;;;359.20;1561.60;;;;;;5093774;28;20020;-64
2021/10/30 07:38:00;;;;;;;20.33;8.30;;;359.20;1561.60;;;;;;5093527;28;20031;-64
2021/10/30 07:40:28;;;;;;;21.23;9.45;;;359.20;1561.60;;;;;;5093775;28;20036;-63
2021/10/30 07:42:54;;;;;;;16.38;9.15;;;359.30;1536.00;;;;;;5093675;28;20035;-64
2021/10/30 07:45:20;;;;;;;18.23;8.70;;;384.00;1536.00;;;;;;5093780;28;20377;-64
2021/10/30 07:47:47;;;;;;;14.75;9.25;;;384.10;1536.00;;;;;;5093300;28;20202;-64
2021/10/30 07:50:13;;;;;;;21.23;10.23;;;384.10;1510.40;;;;;;5093172;28;20044;-64
2021/10/30 07:52:39;;;;;;;21.42;9.57;;;384.20;1510.40;;;;;;5075421;28;20078;-64
2021/10/30 07:55:06;;;;;;;26.45;11.30;;;384.20;1510.40;;;;;;5093678;28;20458;-64
2021/10/30 07:57:32;;;;;;;24.05;9.98;;;384.40;1510.40;;;;;;5094070;28;20016;-64
2021/10/30 07:59:57;;;;;;;26.30;10.73;;;384.40;1510.40;;;;;;5093558;28;20054;-64
2021/10/30 08:02:23;;;;;;;21.38;10.00;;;384.50;1484.80;;;;;;5093295;28;20378;-63
2021/10/30 08:04:49;;;;;;;36.33;11.23;;;384.50;1484.80;;;;;;5093261;28;20039;-64
2021/10/30 08:07:15;;;;;;;43.10;11.20;;;384.70;1484.80;;;;;;5093357;28;20031;-64
2021/10/30 08:09:41;;;;;;;22.30;10.27;;;384.80;1459.20;;;;;;5094601;28;20024;-64
2021/10/30 08:12:08;;;;;;;28.50;11.30;;;384.90;1459.20;;;;;;5097555;28;20418;-64
2021/10/30 08:14:34;;;;;;;29.40;13.35;;;409.60;1484.80;;;;;;5097261;28;20107;-64
2021/10/30 08:20:26;;;;;;;;;;;409.70;1459.20;;;;;;5097416;28;20028;-64
2021/10/30 08:22:52;;;;;;;28.50;11.30;;;409.90;1459.20;;;;;;5097164;28;20413;-64
2021/10/30 08:34:55;;;;;;;;;;;410.20;1408.00;;;;;;5096580;28;19904;-64
2021/10/30 08:37:21;;;;;;;;;;;410.30;1408.00;;;;;;5079067;28;20270;-64
2021/10/30 08:49:06;;;;;;;;;;;435.30;1382.40;;;;;;5096261;28;20415;-64
2021/10/30 08:51:33;;;;;;;;;;;435.40;1356.80;;;;;;5096817;28;19922;-64
2021/10/30 09:03:18;;;;;;;;;;;435.80;1331.20;;;;;;5095848;28;19914;-64
2021/10/30 09:05:45;;;;;;;;;;;435.80;1331.20;;;;;;5078605;28;19904;-64
2021/10/30 09:18:06;;;;;;;;;;;436.10;1305.60;;;;;;5096502;28;19943;-64
2021/10/30 09:20:36;;;;;;;;;;;460.80;1331.20;;;;;;5096427;28;19904;-64
2021/10/30 09:23:01;;;;;;;;;;;460.90;1305.60;;;;;;5116417;28;19934;-64
2021/10/30 09:34:57;;;;;;;;;;;461.20;1305.60;;;;;;5116540;28;19949;-65
2021/10/30 09:37:24;;;;;;;;;;;461.30;1280.00;;;;;;5116537;28;20361;-66
2021/10/30 09:46:12;;;;;;;;;;;461.50;1254.40;;;;;;2194286;22;20143;-66
2021/10/30 09:48:41;;;;;;;;;;;461.50;1254.40;;;;;;5095046;28;19920;-65
2021/10/30 09:51:07;;;;;;;;;;;461.60;1254.40;;;;;;5095330;28;20319;-66
2021/10/30 09:53:32;;;;;;;;;;;461.60;1254.40;;;;;;5077030;28;19904;-66
2021/10/30 09:56:05;;;;;;;;;;;461.70;1228.80;;;;;;5095771;28;20349;-65
2021/10/30 09:58:33;;;;;;;;;;;486.40;1228.80;;;;;;5096506;28;20280;-66
2021/10/30 10:00:59;;;;;;;;;;;486.40;1228.80;;;;;;5095383;28;20345;-66
2021/10/30 10:03:26;;;;;;;;;;;486.40;1228.80;;;;;;5095788;28;19965;-66
2021/10/30 10:05:53;;;;;;;;;;;486.40;1228.80;;;;;;5095563;28;20246;-65
2021/10/30 10:08:19;;;;;;;;;;;486.50;1228.80;;;;;;5095520;28;19919;-66
2021/10/30 10:10:45;;;;;;;;;;;486.50;1228.80;;;;;;5095660;28;19905;-66
2021/10/30 10:13:10;;;;;;;;;;;486.60;1203.20;;;;;;5095455;28;20002;-66
2021/10/30 10:15:39;;;;;;;;;;;486.60;1203.20;;;;;;5095221;28;19990;-63
2021/10/30 10:18:06;;;;;;;;;;;486.60;1203.20;;;;;;5095372;28;20242;-62
2021/10/30 10:20:32;;;;;;;;;;;486.70;1203.20;;;;;;5095554;28;19904;-63
2021/10/30 10:22:57;;;;;;;;;;;486.70;1203.20;;;;;;5095444;28;19904;-63
2021/10/30 10:25:24;;;;;;;;;;;486.70;1203.20;;;;;;5095208;28;19904;-62
2021/10/30 10:27:49;;;;;;;;;;;486.80;1203.20;;;;;;5095232;28;19982;-63
2021/10/30 10:30:15;;;;;;;;;;;486.80;1203.20;;;;;;5095057;28;19908;-63
2021/10/30 10:32:40;;;;;;;;;;;486.80;1203.20;;;;;;5094977;28;19911;-63
2021/10/30 10:35:06;;;;;;;;;;;486.90;1203.20;;;;;;5095035;28;19908;-62
2021/10/30 10:37:32;;;;;;;;;;;486.90;1177.60;;;;;;5095357;28;19949;-63
2021/10/30 10:39:59;;;;;;;;;;;487.00;1177.60;;;;;;5095303;28;20341;-63
2021/10/30 10:42:33;;;;;;;;;;;487.00;1177.60;;;;;;5095088;28;20283;-62
2021/10/30 10:45:00;;;;;;;;;;;487.10;1203.20;;;;;;5094752;28;19911;-62
2021/10/30 10:47:35;;;;;;;;;;;487.10;1152.00;;;;;;5094494;28;19931;-62
2021/10/30 10:50:20;;;;;;;;;;;487.10;1152.00;;;;;;5095105;28;19904;-62
2021/10/30 10:53:05;;;;;;;;;;;487.10;1152.00;;;;;;5094759;28;19904;-62
2021/10/30 10:55:35;;;;;;;;;;;487.20;1152.00;;;;;;5094725;28;19908;-63
2021/10/30 10:58:02;;;;;;;;;;;487.10;1152.00;;;;;;5094909;28;19957;-63
2021/10/30 11:00:29;;;;;;;;;;;487.20;1152.00;;;;;;5094505;28;19908;-63
2021/10/30 11:02:55;;;;;;;;;;;487.20;1152.00;;;;;;5094811;28;19904;-63
2021/10/30 11:05:21;;;;;;;;;;;487.20;1152.00;;;;;;5086825;28;20053;-63
2021/10/30 11:07:46;;;;;;;;;;;487.20;1152.00;;;;;;5074421;28;20006;-62
2021/10/30 11:10:13;;;;;;;;;;;487.20;1152.00;;;;;;5073152;28;19911;-63
2021/10/30 11:12:42;;;;;;;;;;;487.20;1152.00;;;;;;5074699;28;19912;-62
2021/10/30 11:15:13;;;;;;;;;;;487.20;1152.00;;;;;;5074370;28;19904;-63
2021/10/30 11:20:36;;;;;;;;;;;487.30;1152.00;;;;;;5077340;28;20378;-62
2021/10/30 11:23:03;;;;;;;;;;;487.30;1152.00;;;;;;5075126;28;19904;-62
2021/10/30 11:25:32;;;;;;;;;;;487.30;1152.00;;;;;;5074293;28;20238;-62
2021/10/30 11:27:58;;;;;;;;;;;487.30;1152.00;;;;;;5074039;28;19912;-63
2021/10/30 11:30:34;;;;;;;;;;;487.30;1177.60;;;;;;5074072;28;19904;-62
2021/10/30 11:33:00;;;;;;;;;;;487.30;1152.00;;;;;;5074324;28;20361;-63
2021/10/30 11:35:26;;;;;;;;;;;512.00;1152.00;;;;;;5077390;28;19913;-63
2021/10/30 11:37:51;;;;;;;;;;;512.00;1152.00;;;;;;5093135;28;19903;-63
2021/10/30 11:40:17;;;;;;;;;;;512.00;1152.00;;;;;;5095857;28;20010;-62
2021/10/30 11:42:43;;;;;;;;;;;512.00;1177.60;;;;;;5091819;28;20300;-62
2021/10/30 11:45:08;;;;;;;;;;;512.00;1177.60;;;;;;5098868;28;19908;-62
2021/10/30 11:47:34;;;;;;;;;;;512.00;1177.60;;;;;;5098932;28;20352;-62
2021/10/30 11:50:06;;;;;;;;;;;512.00;1177.60;;;;;;5095619;28;19958;-62
2021/10/30 11:52:32;;;;;;;;;;;512.00;1177.60;;;;;;5094105;28;20026;-62
2021/10/30 11:54:58;;;;;;;;;;;512.10;1177.60;;;;;;5097414;28;19994;-65
2021/10/30 11:57:24;;;;;;;;;;;512.10;1152.00;;;;;;5097073;28;19911;-65
2021/10/30 11:59:56;;;;;;;;;;;512.10;1152.00;;;;;;5077523;28;20253;-65
2021/10/30 12:02:22;;;;;;;;;;;512.10;1152.00;;;;;;5075830;28;20361;-65
2021/10/30 12:04:47;;;;;;;;;;;512.00;1152.00;;;;;;5076293;28;20000;-66
2021/10/30 12:07:14;;;;;;;;;;;512.10;1126.40;;;;;;5079736;28;20358;-65
2021/10/30 12:09:46;;;;;;;;;;;512.10;1126.40;;;;;;5099352;28;20250;-66
2021/10/30 12:12:18;;;;;;;;;;;512.10;1126.40;;;;;;5094265;28;19911;-65
2021/10/30 12:14:45;;;;;;;;;;;512.10;1126.40;;;;;;5094117;28;19903;-66
2021/10/30 12:17:18;;;;;;;;;;;512.10;1126.40;;;;;;5095569;28;19944;-66
2021/10/30 12:20:05;;;;;;;;;;;512.10;1126.40;;;;;;5094589;28;19903;-66
2021/10/30 12:22:36;;;;;;;;;;;512.10;1100.80;;;;;;5094221;28;20387;-66
2021/10/30 12:25:04;;;;;;;;;;;512.00;1100.80;;;;;;5094462;28;19911;-65
2021/10/30 12:27:31;;;;;;;;;;;512.00;1100.80;;;;;;5095096;28;20361;-66
2021/10/30 12:30:04;;;;;;;;;;;512.00;1126.40;;;;;;5092603;28;19912;-65
2021/10/30 12:32:35;;;;;;;;;;;512.00;1100.80;;;;;;5094450;28;19918;-65
2021/10/30 12:35:01;;;;;;;;;;;512.00;1100.80;;;;;;5096946;28;19903;-65
2021/10/30 12:37:28;;;;;;;;;;;512.00;1100.80;;;;;;5093965;28;19905;-65
2021/10/30 12:39:55;;;;;;;;;;;512.00;1100.80;;;;;;5093481;28;19904;-64
2021/10/30 12:42:21;;;;;;;;;;;512.00;1100.80;;;;;;5096779;28;19911;-64
2021/10/30 12:44:49;;;;;;;;;;;487.30;1100.80;;;;;;5089727;28;20360;-66
2021/10/30 12:47:15;;;;;;;;;;;512.00;1126.40;;;;;;5046494;28;1418867;-65
2021/10/30 12:49:42;;;;;;;;;;;512.00;1126.40;;;;;;5093513;28;20430;-65
2021/10/30 12:52:10;;;;;;;;;;;487.30;1100.80;;;;;;5096521;28;20265;-65
2021/10/30 12:54:38;;;;;;;;;;;487.30;1100.80;;;;;;5097317;28;20019;-65
2021/10/30 12:57:33;;;;;;;;;;;487.30;1100.80;;;;;;5094238;28;19904;-65
2021/10/30 13:00:03;;;;;;;;;;;487.30;1126.40;;;;;;5012514;28;19955;-65
2021/10/30 13:02:29;;;;;;;;;;;487.30;1100.80;;;;;;5013179;28;20003;-66
2021/10/30 13:04:55;;;;;;;;;;;487.30;1100.80;;;;;;5013067;28;20442;-66
2021/10/30 13:07:21;;;;;;;;;;;487.20;1126.40;;;;;;5012884;28;19914;-66
2021/10/30 13:09:53;;;;;;;;;;;487.30;1126.40;;;;;;5013520;28;19916;-66
2021/10/30 13:12:19;;;;;;;;;;;487.20;1100.80;;;;;;4997047;28;19913;-65
2021/10/30 13:14:44;;;;;;;;;;;487.20;1126.40;;;;;;5012784;28;19909;-65
2021/10/30 13:17:10;;;;;;;;;;;487.30;1100.80;;;;;;5012857;28;20382;-65
2021/10/30 13:19:36;;;;;;;;;;;487.20;1126.40;;;;;;5012808;28;20040;-65
2021/10/30 13:22:01;;;;;;;;;;;487.20;1126.40;;;;;;5012950;28;19906;-66
2021/10/30 13:24:27;;;;;;;;;;;487.20;1126.40;;;;;;5014002;28;19913;-67
2021/10/30 13:26:52;;;;;;;;;;;487.20;1152.00;;;;;;5013881;28;20260;-66
2021/10/30 13:29:25;;;;;;;;;;;487.20;1126.40;;;;;;5014653;28;19909;-66